Time;durP1;ratioP1;P1;durP2;ratioP2;P2;SDS_P1;SDS_P2;PMS_P1;PMS_P2;Temp;Humidity;BMP_temperature;BMP_pressure;BME280_temperature;BME280_humidity;BME280_pressure;Samples;Min_cycle;Max_cycle;Signal;HPM_P1;HPM_P2
2021/11/08 00:01:10;;;;;;;8.55;1.33;;;7.80;99.90;;;;;;5045246;28;20037;-83
2021/11/08 00:03:39;;;;;;;6.57;1.73;;;7.80;99.90;;;;;;5043968;28;20044;-78
2021/11/08 00:06:06;;;;;;;7.20;2.20;;;7.80;99.90;;;;;;5043880;28;20034;-78
2021/11/08 00:08:33;;;;;;;7.53;1.85;;;7.80;99.90;;;;;;5044841;28;20044;-81
2021/11/08 00:10:58;;;;;;;4.57;1.60;;;7.70;99.90;;;;;;5043485;28;20053;-80
2021/11/08 00:13:25;;;;;;;5.70;1.20;;;7.70;99.90;;;;;;5043290;28;20026;-79
2021/11/08 00:16:10;;;;;;;12.35;1.38;;;7.70;99.90;;;;;;5043068;28;20025;-78
2021/11/08 00:21:05;;;;;;;6.68;1.25;;;7.70;99.90;;;;;;5030997;28;20041;-80
2021/11/08 00:23:30;;;;;;;9.50;2.22;;;7.70;99.90;;;;;;5023490;28;20400;-76
2021/11/08 00:25:57;;;;;;;13.38;1.38;;;7.70;99.90;;;;;;5024965;28;20030;-77
2021/11/08 00:28:24;;;;;;;4.57;2.30;;;7.70;99.90;;;;;;5023041;28;20105;-74
2021/11/08 00:30:53;;;;;;;6.75;1.75;;;7.80;99.90;;;;;;5024939;28;20029;-77
2021/11/08 00:33:19;;;;;;;9.80;2.20;;;7.70;99.90;;;;;;5024818;28;20026;-80
2021/11/08 00:35:48;;;;;;;16.40;1.60;;;7.70;99.90;;;;;;5023440;28;20028;-79
2021/11/08 00:38:16;;;;;;;14.55;1.55;;;7.80;99.90;;;;;;5024915;28;20077;-80
2021/11/08 00:40:42;;;;;;;6.07;1.52;;;7.70;99.90;;;;;;5023621;28;20021;-77
2021/11/08 00:43:08;;;;;;;3.05;0.98;;;7.70;99.90;;;;;;5023360;28;20129;-76
2021/11/08 00:45:35;;;;;;;5.47;0.90;;;7.70;99.90;;;;;;5023397;28;20064;-77
2021/11/08 00:48:01;;;;;;;5.47;1.52;;;7.70;99.90;;;;;;5022878;28;20061;-74
2021/11/08 00:50:27;;;;;;;6.05;1.15;;;7.70;99.90;;;;;;5023026;28;20054;-80
2021/11/08 00:52:54;;;;;;;11.07;1.70;;;7.70;99.90;;;;;;5023277;28;20033;-75
2021/11/08 00:55:22;;;;;;;6.35;1.55;;;7.70;99.90;;;;;;5024317;28;20057;-79
2021/11/08 00:57:49;;;;;;;7.95;1.52;;;7.70;99.90;;;;;;5023549;28;20391;-81
2021/11/08 01:00:18;;;;;;;5.28;1.77;;;7.70;99.90;;;;;;5024708;28;20050;-80
2021/11/08 01:02:44;;;;;;;22.95;1.88;;;7.70;99.90;;;;;;5022931;28;20026;-76
2021/11/08 01:05:12;;;;;;;3.00;0.95;;;7.70;99.90;;;;;;5023453;28;20036;-80
2021/11/08 01:07:39;;;;;;;7.95;1.27;;;7.70;99.90;;;;;;5023298;28;20394;-75
2021/11/08 01:10:08;;;;;;;4.95;0.93;;;7.70;99.90;;;;;;5023307;28;20033;-84
2021/11/08 01:12:34;;;;;;;4.80;1.73;;;7.70;99.90;;;;;;5023170;28;20084;-80
2021/11/08 01:15:00;;;;;;;3.92;1.00;;;7.70;99.90;;;;;;5024371;28;20066;-80
2021/11/08 01:17:26;;;;;;;3.28;0.98;;;7.80;99.90;;;;;;5023135;28;20037;-78
2021/11/08 01:19:52;;;;;;;4.28;1.65;;;7.80;99.90;;;;;;5023118;28;20057;-74
2021/11/08 01:22:20;;;;;;;3.60;1.13;;;7.80;99.90;;;;;;5024577;28;20034;-80
2021/11/08 01:24:54;;;;;;;9.63;1.05;;;7.80;99.90;;;;;;5023950;28;20080;-80
2021/11/08 01:27:38;;;;;;;7.78;1.17;;;7.80;99.90;;;;;;5023034;28;20026;-80
2021/11/08 01:30:13;;;;;;;13.00;1.35;;;7.80;99.90;;;;;;5022717;28;20140;-78
2021/11/08 01:32:41;;;;;;;7.47;0.95;;;7.80;99.90;;;;;;5024428;28;20097;-78
2021/11/08 01:35:07;;;;;;;8.02;0.82;;;7.80;99.90;;;;;;5024288;28;20025;-79
2021/11/08 01:37:33;;;;;;;16.45;1.00;;;7.80;99.90;;;;;;5023677;28;20018;-79
2021/11/08 01:39:59;;;;;;;5.15;1.63;;;7.80;99.90;;;;;;5022961;28;20471;-77
2021/11/08 01:42:25;;;;;;;2.92;0.82;;;7.80;99.90;;;;;;5024166;28;20061;-80
2021/11/08 01:44:51;;;;;;;1.08;0.88;;;7.80;99.90;;;;;;5022522;28;20103;-78
2021/11/08 01:47:17;;;;;;;7.20;1.15;;;7.80;99.90;;;;;;5024139;28;20033;-78
2021/11/08 01:49:44;;;;;;;6.03;0.93;;;7.80;99.90;;;;;;5022879;28;20026;-79
2021/11/08 01:52:12;;;;;;;23.38;1.63;;;7.80;99.90;;;;;;5022665;28;20038;-78
2021/11/08 01:54:38;;;;;;;20.70;1.48;;;7.80;99.90;;;;;;5022905;28;20125;-79
2021/11/08 01:57:05;;;;;;;4.80;0.68;;;7.80;99.90;;;;;;5023988;28;20089;-80
2021/11/08 01:59:32;;;;;;;13.02;2.17;;;7.70;99.90;;;;;;5023946;28;21016;-79
2021/11/08 02:01:59;;;;;;;9.50;2.20;;;7.70;99.90;;;;;;5027420;28;20034;-79
2021/11/08 02:04:26;;;;;;;5.47;0.85;;;7.70;99.90;;;;;;5025536;28;20042;-79
2021/11/08 02:06:52;;;;;;;11.63;1.23;;;7.70;99.90;;;;;;5027390;28;20069;-78
2021/11/08 02:09:19;;;;;;;1.73;1.02;;;7.70;99.90;;;;;;5026128;28;20030;-80
2021/11/08 02:11:45;;;;;;;2.35;0.95;;;7.60;99.90;;;;;;5026009;28;20057;-78
2021/11/08 02:14:11;;;;;;;14.98;1.92;;;7.60;99.90;;;;;;5026034;28;20045;-78
2021/11/08 02:16:37;;;;;;;4.47;1.20;;;7.70;99.90;;;;;;5025912;28;20034;-80
2021/11/08 02:19:06;;;;;;;12.63;0.82;;;7.70;99.90;;;;;;5025847;28;20057;-78
2021/11/08 02:21:33;;;;;;;10.88;1.85;;;7.60;99.90;;;;;;5025854;28;20022;-78
2021/11/08 02:24:01;;;;;;;2.28;1.05;;;7.60;99.90;;;;;;5026587;28;20048;-78
2021/11/08 02:26:27;;;;;;;2.10;0.75;;;7.60;99.90;;;;;;5025408;28;20026;-77
2021/11/08 02:28:53;;;;;;;6.20;2.03;;;7.60;99.90;;;;;;5026990;28;20084;-80
2021/11/08 02:31:22;;;;;;;2.15;1.52;;;7.60;99.90;;;;;;5025903;28;20037;-79
2021/11/08 02:33:53;;;;;;;5.93;1.67;;;7.60;99.90;;;;;;5025812;28;20065;-79
2021/11/08 02:36:21;;;;;;;13.93;1.73;;;7.50;99.90;;;;;;5025570;28;20458;-79
2021/11/08 02:38:51;;;;;;;1.58;0.45;;;7.50;99.90;;;;;;5025760;28;20070;-77
2021/11/08 02:41:19;;;;;;;17.98;2.35;;;7.50;99.90;;;;;;5026953;28;20084;-84
2021/11/08 02:43:46;;;;;;;6.00;1.45;;;7.50;99.90;;;;;;5025625;28;20041;-81
2021/11/08 02:46:17;;;;;;;9.98;0.90;;;7.50;99.90;;;;;;5027266;28;20364;-77
2021/11/08 02:48:46;;;;;;;8.75;0.70;;;7.40;99.90;;;;;;5025888;28;20030;-78
2021/11/08 02:51:16;;;;;;;4.65;1.33;;;7.40;99.90;;;;;;5025276;28;20034;-79
2021/11/08 02:53:44;;;;;;;12.32;1.33;;;7.40;99.90;;;;;;5026761;28;20025;-79
2021/11/08 02:56:12;;;;;;;9.80;1.35;;;7.40;99.90;;;;;;5025104;28;20026;-78
2021/11/08 02:58:39;;;;;;;11.82;0.95;;;7.40;99.90;;;;;;5026674;28;20037;-74
2021/11/08 03:01:07;;;;;;;14.13;1.40;;;7.40;99.90;;;;;;5025087;28;20430;-78
2021/11/08 03:03:38;;;;;;;2.20;0.65;;;7.40;99.90;;;;;;5026422;28;20034;-78
2021/11/08 03:06:12;;;;;;;2.58;0.55;;;7.40;99.90;;;;;;5026477;28;20065;-77
2021/11/08 03:08:37;;;;;;;1.70;1.05;;;7.40;99.90;;;;;;5026474;28;20554;-78
2021/11/08 03:11:04;;;;;;;5.32;1.05;;;7.30;99.90;;;;;;5032249;28;20038;-77
2021/11/08 03:13:34;;;;;;;6.82;0.93;;;7.30;99.90;;;;;;5061145;28;20029;-77
2021/11/08 03:16:25;;;;;;;6.13;0.93;;;7.30;99.90;;;;;;5044251;28;20093;-77
2021/11/08 03:18:55;;;;;;;9.38;2.33;;;7.30;99.90;;;;;;5045823;28;20021;-79
2021/11/08 03:21:22;;;;;;;1.48;0.90;;;7.30;99.90;;;;;;5045728;28;20025;-80
2021/11/08 03:23:51;;;;;;;5.43;2.15;;;7.30;99.90;;;;;;5044296;28;20128;-76
2021/11/08 03:26:43;;;;;;;5.85;1.33;;;7.30;99.90;;;;;;5044376;28;20052;-75
2021/11/08 03:29:10;;;;;;;4.65;1.35;;;7.30;99.90;;;;;;5044251;28;20064;-76
2021/11/08 03:31:39;;;;;;;8.18;1.27;;;7.30;99.90;;;;;;5045801;28;20029;-77
2021/11/08 03:34:07;;;;;;;4.72;0.98;;;7.30;99.90;;;;;;5045298;28;20025;-80
2021/11/08 03:36:33;;;;;;;2.88;1.05;;;7.20;99.90;;;;;;5045363;28;20032;-79
2021/11/08 03:38:58;;;;;;;8.05;1.23;;;7.30;99.90;;;;;;5060941;28;20029;-79
2021/11/08 03:41:24;;;;;;;10.23;2.40;;;7.20;99.90;;;;;;5045317;28;20022;-79
2021/11/08 03:43:50;;;;;;;17.83;1.50;;;7.20;99.90;;;;;;5045553;28;20104;-76
2021/11/08 03:46:16;;;;;;;6.00;0.73;;;7.20;99.90;;;;;;5045244;28;20048;-78
2021/11/08 03:48:44;;;;;;;9.60;2.03;;;7.20;99.90;;;;;;5044976;28;20026;-77
2021/11/08 03:51:10;;;;;;;9.00;1.30;;;7.20;99.90;;;;;;5044393;28;20973;-75
2021/11/08 03:53:35;;;;;;;9.50;2.25;;;7.20;99.90;;;;;;5044774;28;20032;-77
2021/11/08 03:56:02;;;;;;;8.75;1.42;;;7.20;99.90;;;;;;5060511;28;20103;-77
2021/11/08 03:58:28;;;;;;;6.03;1.38;;;7.20;99.90;;;;;;5045041;28;20037;-78
2021/11/08 04:00:54;;;;;;;12.75;1.83;;;7.20;99.90;;;;;;5059990;28;20028;-80
2021/11/08 04:03:20;;;;;;;4.07;1.10;;;7.20;99.90;;;;;;5044701;28;20394;-79
2021/11/08 04:05:46;;;;;;;8.55;1.00;;;7.20;99.90;;;;;;5043649;28;20028;-79
2021/11/08 04:08:17;;;;;;;6.40;1.30;;;7.20;99.90;;;;;;5043693;28;20029;-79
2021/11/08 04:10:44;;;;;;;2.83;1.00;;;7.20;99.90;;;;;;5043635;28;20071;-76
2021/11/08 04:13:10;;;;;;;4.72;1.50;;;7.20;99.90;;;;;;5043437;28;20025;-75
2021/11/08 04:15:44;;;;;;;7.38;1.60;;;7.10;99.90;;;;;;5043557;28;20064;-81
2021/11/08 04:18:16;;;;;;;3.33;1.40;;;7.20;99.90;;;;;;5044862;28;20034;-77
2021/11/08 04:20:45;;;;;;;5.30;0.93;;;7.20;99.90;;;;;;5044859;28;20017;-78
2021/11/08 04:23:13;;;;;;;11.27;1.73;;;7.20;99.90;;;;;;5043051;28;20136;-76
2021/11/08 04:25:40;;;;;;;7.50;0.75;;;7.20;99.90;;;;;;5044666;28;20089;-77
2021/11/08 04:28:06;;;;;;;8.63;1.42;;;7.20;99.90;;;;;;5044598;28;20082;-76
2021/11/08 04:30:33;;;;;;;4.90;1.65;;;7.20;99.90;;;;;;5044424;28;20470;-77
2021/11/08 04:35:57;;;;;;;0.95;0.28;;;7.20;99.90;;;;;;5044699;28;20036;-76
2021/11/08 04:48:48;;;;;;;7.57;1.13;;;7.20;99.90;;;;;;5044218;28;20036;-77
2021/11/08 04:51:55;;;;;;;5.38;0.70;;;7.20;99.90;;;;;;5044287;28;20032;-78
2021/11/08 05:21:16;;;;;;;3.03;0.60;;;7.10;99.90;;;;;;5044351;28;20044;-78
2021/11/08 05:31:55;;;;;;;9.85;2.05;;;7.10;99.90;;;;;;5043946;28;20381;-79
2021/11/08 05:34:20;;;;;;;0.75;0.45;;;7.10;99.90;;;;;;5045761;28;20073;-81
2021/11/08 05:36:48;;;;;;;3.15;0.65;;;7.10;99.90;;;;;;5048052;28;20041;-79
2021/11/08 05:39:15;;;;;;;9.02;0.98;;;7.00;99.90;;;;;;5047628;28;20029;-80
2021/11/08 05:41:42;;;;;;;13.70;1.48;;;7.00;99.90;;;;;;5047733;28;20159;-78
2021/11/08 05:44:08;;;;;;;9.63;0.68;;;7.00;99.90;;;;;;5045720;28;20056;-78
2021/11/08 05:46:35;;;;;;;12.43;1.13;;;7.10;99.90;;;;;;5046917;28;20884;-78
2021/11/08 05:49:02;;;;;;;2.10;1.00;;;7.00;99.90;;;;;;5046327;28;20088;-79
2021/11/08 05:51:31;;;;;;;4.45;1.05;;;7.00;99.90;;;;;;5062614;28;20467;-80
2021/11/08 05:53:56;;;;;;;4.65;1.13;;;7.00;99.90;;;;;;5062809;28;20021;-77
2021/11/08 05:56:41;;;;;;;9.15;1.02;;;7.00;99.90;;;;;;5062728;28;20026;-80
2021/11/08 06:47:46;;;;;;;5.68;1.45;;;6.90;99.90;;;;;;5047223;28;20040;-80
2021/11/08 06:50:57;;;;;;;8.45;1.08;;;6.80;99.90;;;;;;5034757;28;19913;-75
2021/11/08 06:53:23;;;;;;;1.35;0.68;;;6.80;99.90;;;;;;5041389;28;20024;-76
2021/11/08 06:55:53;;;;;;;2.90;0.77;;;6.70;99.90;;;;;;5041816;28;20038;-76
2021/11/08 06:58:22;;;;;;;5.38;0.77;;;6.70;99.90;;;;;;5027964;28;20484;-76
2021/11/08 07:00:49;;;;;;;2.67;1.10;;;6.70;99.90;;;;;;5043608;28;20040;-75
2021/11/08 07:03:16;;;;;;;6.30;1.60;;;6.70;99.90;;;;;;5060870;28;20041;-78
2021/11/08 07:05:43;;;;;;;9.93;1.75;;;6.80;99.90;;;;;;5045583;28;20064;-77
2021/11/08 07:08:10;;;;;;;9.25;1.67;;;6.80;99.90;;;;;;5045140;28;20013;-75
2021/11/08 07:10:37;;;;;;;7.35;1.90;;;6.80;99.90;;;;;;5044164;28;20029;-75
2021/11/08 07:13:03;;;;;;;2.13;0.88;;;6.80;99.90;;;;;;5044333;28;20152;-75
2021/11/08 07:15:30;;;;;;;6.43;1.67;;;6.90;99.90;;;;;;5037769;28;20045;-75
2021/11/08 07:17:56;;;;;;;5.15;1.40;;;6.90;99.90;;;;;;5038064;28;20030;-76
2021/11/08 07:20:32;;;;;;;3.97;1.17;;;6.90;99.90;;;;;;5060551;28;20021;-77
2021/11/08 07:22:58;;;;;;;3.05;1.38;;;7.00;99.90;;;;;;5046061;28;20077;-75
2021/11/08 07:25:24;;;;;;;6.30;1.60;;;7.10;99.90;;;;;;5043929;28;20463;-75
2021/11/08 07:27:50;;;;;;;3.67;1.67;;;7.10;99.90;;;;;;5041396;28;20049;-75
2021/11/08 07:30:16;;;;;;;5.00;1.83;;;7.20;99.90;;;;;;5024830;28;20046;-76
2021/11/08 07:32:42;;;;;;;12.18;1.50;;;7.30;99.90;;;;;;5026024;28;20030;-76
2021/11/08 07:35:09;;;;;;;2.95;1.15;;;7.40;99.90;;;;;;5026501;28;20038;-76
2021/11/08 07:37:35;;;;;;;7.68;1.55;;;7.50;99.90;;;;;;5038460;28;20033;-75
2021/11/08 07:40:00;;;;;;;10.57;0.80;;;7.70;99.90;;;;;;5045308;28;20022;-76
2021/11/08 07:42:27;;;;;;;7.93;1.42;;;7.80;99.90;;;;;;5040875;28;20026;-76
2021/11/08 07:44:52;;;;;;;19.15;2.03;;;7.90;99.90;;;;;;5038213;28;20062;-75
2021/11/08 07:47:18;;;;;;;5.80;1.30;;;8.00;99.90;;;;;;5064310;28;20025;-76
2021/11/08 07:49:44;;;;;;;6.93;0.95;;;8.00;99.90;;;;;;5065717;28;20028;-76
2021/11/08 07:52:10;;;;;;;2.25;0.90;;;7.90;99.90;;;;;;5053658;28;20064;-75
2021/11/08 07:54:36;;;;;;;2.75;0.93;;;7.90;99.90;;;;;;5044078;28;20029;-77
2021/11/08 07:57:03;;;;;;;4.38;0.85;;;7.90;99.90;;;;;;5034850;28;20036;-77
2021/11/08 07:59:29;;;;;;;6.38;1.08;;;7.90;99.90;;;;;;5036672;28;20076;-76
2021/11/08 08:01:55;;;;;;;7.05;0.88;;;7.80;99.90;;;;;;5038625;28;20033;-77
2021/11/08 08:04:21;;;;;;;2.40;0.98;;;7.80;99.90;;;;;;5024342;28;20038;-77
2021/11/08 08:06:49;;;;;;;5.88;1.90;;;7.90;99.90;;;;;;5043504;28;20033;-77
2021/11/08 08:09:17;;;;;;;5.20;1.48;;;7.90;99.90;;;;;;5064260;28;20103;-76
2021/11/08 08:11:44;;;;;;;6.78;1.02;;;8.10;99.90;;;;;;5050826;28;20056;-78
2021/11/08 08:14:09;;;;;;;2.70;1.23;;;8.30;99.90;;;;;;5044352;28;20029;-74
2021/11/08 08:16:37;;;;;;;3.20;1.42;;;8.30;99.90;;;;;;5044052;28;20155;-75
2021/11/08 08:19:04;;;;;;;3.42;1.45;;;8.30;99.90;;;;;;5043820;28;20045;-76
2021/11/08 08:21:30;;;;;;;12.00;1.00;;;8.40;99.90;;;;;;5051962;28;20025;-77
2021/11/08 08:24:00;;;;;;;8.07;0.80;;;8.40;99.90;;;;;;5035348;28;20076;-76
2021/11/08 08:26:38;;;;;;;8.55;1.10;;;8.30;99.90;;;;;;5039986;28;20033;-76
2021/11/08 08:29:07;;;;;;;1.48;0.93;;;8.30;99.90;;;;;;5028534;28;20065;-74
2021/11/08 08:31:38;;;;;;;11.75;1.73;;;8.30;99.90;;;;;;5043270;28;20025;-75
2021/11/08 08:34:05;;;;;;;2.80;0.70;;;8.30;99.90;;;;;;5064380;28;20081;-76
2021/11/08 08:36:31;;;;;;;3.90;0.85;;;8.30;99.90;;;;;;5061492;28;20048;-79
2021/11/08 08:38:56;;;;;;;8.50;1.00;;;8.30;99.90;;;;;;5046789;28;20029;-76
2021/11/08 08:41:22;;;;;;;5.57;1.27;;;8.30;99.90;;;;;;5043983;28;20029;-78
2021/11/08 08:43:50;;;;;;;2.13;0.60;;;8.30;99.90;;;;;;5043855;28;20033;-79
2021/11/08 08:46:23;;;;;;;2.90;0.93;;;8.40;99.90;;;;;;5052318;28;20026;-78
2021/11/08 08:48:50;;;;;;;5.68;1.38;;;8.40;99.90;;;;;;5038031;28;20088;-76
2021/11/08 08:51:23;;;;;;;7.68;1.65;;;8.40;99.90;;;;;;5034039;28;20073;-76
2021/11/08 08:53:49;;;;;;;0.90;0.80;;;8.50;99.90;;;;;;5043129;28;20033;-78
2021/11/08 08:56:18;;;;;;;3.35;1.13;;;8.50;99.90;;;;;;5043696;28;20389;-76
2021/11/08 08:58:44;;;;;;;3.50;1.48;;;8.60;99.90;;;;;;5039068;28;20025;-77
2021/11/08 09:01:09;;;;;;;7.63;2.25;;;8.70;99.90;;;;;;5033600;28;20030;-78
2021/11/08 09:03:35;;;;;;;2.33;1.13;;;8.70;99.90;;;;;;5041324;28;20409;-77
2021/11/08 09:06:02;;;;;;;12.82;1.23;;;8.70;99.90;;;;;;5022922;28;20041;-79
2021/11/08 09:08:27;;;;;;;10.18;1.08;;;8.80;99.90;;;;;;5024330;28;20096;-77
2021/11/08 09:10:53;;;;;;;5.65;1.70;;;8.80;99.90;;;;;;5038699;28;20477;-77
2021/11/08 09:13:19;;;;;;;5.75;1.63;;;8.80;99.90;;;;;;5046429;28;20026;-78
2021/11/08 09:15:46;;;;;;;15.73;1.25;;;8.90;99.90;;;;;;5046738;28;20026;-76
2021/11/08 09:18:20;;;;;;;7.50;2.10;;;8.90;99.90;;;;;;5036418;28;20427;-79
2021/11/08 09:20:46;;;;;;;5.07;1.55;;;8.90;99.90;;;;;;5029044;28;20033;-78
2021/11/08 09:23:16;;;;;;;11.38;2.25;;;8.90;99.90;;;;;;5039734;28;20037;-75
2021/11/08 09:25:43;;;;;;;2.92;1.23;;;9.00;99.90;;;;;;5033284;28;20022;-76
2021/11/08 09:28:09;;;;;;;9.10;1.63;;;9.00;99.90;;;;;;5041670;28;20036;-77
2021/11/08 09:30:44;;;;;;;10.85;1.75;;;9.00;99.90;;;;;;5034101;28;20069;-76
2021/11/08 09:33:14;;;;;;;4.32;1.25;;;9.10;99.90;;;;;;5026442;28;20030;-77
2021/11/08 09:35:46;;;;;;;8.85;1.58;;;9.10;99.90;;;;;;5027806;28;20025;-73
2021/11/08 09:38:15;;;;;;;2.60;1.48;;;9.20;99.90;;;;;;5037549;28;20049;-79
2021/11/08 09:40:44;;;;;;;8.40;1.33;;;9.20;99.90;;;;;;5046359;28;20033;-78
2021/11/08 09:43:13;;;;;;;3.40;0.95;;;9.30;99.90;;;;;;5045931;28;20038;-79
2021/11/08 09:45:42;;;;;;;11.15;1.02;;;9.30;99.90;;;;;;5041817;28;20040;-76
2021/11/08 09:48:11;;;;;;;6.43;0.85;;;9.40;99.90;;;;;;5044206;28;20029;-80
2021/11/08 09:50:42;;;;;;;2.58;1.15;;;9.50;99.90;;;;;;5046347;28;20060;-76
2021/11/08 09:53:08;;;;;;;11.77;1.70;;;9.50;99.90;;;;;;5042883;28;20025;-78
2021/11/08 09:55:35;;;;;;;4.45;0.65;;;9.50;99.90;;;;;;5042962;28;20037;-77
2021/11/08 09:58:02;;;;;;;2.10;0.47;;;9.50;99.90;;;;;;5026009;28;20073;-77
2021/11/08 10:00:59;;;;;;;6.28;1.52;;;9.60;99.90;;;;;;5035390;28;20032;-78
2021/11/08 10:03:37;;;;;;;5.35;1.23;;;9.60;99.90;;;;;;5034368;28;20041;-76
2021/11/08 10:06:04;;;;;;;7.82;1.13;;;9.50;99.90;;;;;;5025769;28;20041;-76
2021/11/08 10:08:36;;;;;;;6.38;1.15;;;9.50;99.90;;;;;;5059653;28;20039;-76
2021/11/08 10:11:05;;;;;;;5.72;1.48;;;9.50;99.90;;;;;;5056488;28;20503;-77
2021/11/08 10:13:33;;;;;;;3.78;1.25;;;9.50;99.90;;;;;;5067069;28;20036;-76
2021/11/08 10:16:08;;;;;;;10.20;1.48;;;9.50;99.90;;;;;;5067032;28;20025;-77
2021/11/08 10:18:35;;;;;;;14.80;2.60;;;9.50;99.90;;;;;;5033159;28;20040;-77
2021/11/08 10:21:16;;;;;;;8.52;1.35;;;9.50;99.90;;;;;;5043932;28;20037;-77
2021/11/08 10:23:51;;;;;;;6.47;1.42;;;9.50;99.90;;;;;;5041177;28;20072;-76
2021/11/08 10:26:22;;;;;;;4.22;1.15;;;9.50;99.90;;;;;;5034158;28;20090;-77
2021/11/08 10:29:05;;;;;;;6.18;1.30;;;9.50;99.90;;;;;;5035846;28;20058;-78
2021/11/08 10:31:37;;;;;;;1.50;0.35;;;9.60;99.90;;;;;;5033354;28;20022;-77
2021/11/08 10:34:09;;;;;;;6.32;1.50;;;9.60;99.90;;;;;;5046336;28;20195;-75
2021/11/08 10:36:37;;;;;;;2.15;0.63;;;9.60;99.90;;;;;;5044028;28;20034;-74
2021/11/08 10:39:05;;;;;;;3.30;0.73;;;9.60;99.90;;;;;;5033200;28;20029;-78
2021/11/08 10:41:37;;;;;;;7.60;1.27;;;9.60;99.90;;;;;;5045940;28;20392;-80
2021/11/08 10:44:08;;;;;;;7.97;1.05;;;9.50;99.90;;;;;;5044975;28;20041;-76
2021/11/08 10:46:37;;;;;;;7.57;0.98;;;9.50;99.90;;;;;;5045723;28;20029;-79
2021/11/08 10:49:17;;;;;;;9.10;1.08;;;9.50;99.90;;;;;;5045186;28;20029;-78
2021/11/08 10:51:47;;;;;;;9.25;1.35;;;9.50;99.90;;;;;;5044047;28;20030;-76
2021/11/08 10:54:20;;;;;;;2.58;0.68;;;9.50;99.90;;;;;;5045342;28;20029;-77
2021/11/08 10:56:53;;;;;;;6.07;1.33;;;9.50;99.90;;;;;;5043093;28;20032;-80
2021/11/08 10:59:21;;;;;;;11.60;1.35;;;9.50;99.90;;;;;;5025480;28;20041;-75
2021/11/08 11:01:54;;;;;;;0.60;0.45;;;9.50;99.90;;;;;;5042118;28;20105;-76
2021/11/08 11:04:32;;;;;;;0.90;0.35;;;9.50;99.90;;;;;;5044207;28;20102;-76
2021/11/08 11:06:58;;;;;;;3.22;1.40;;;9.50;99.90;;;;;;5046141;28;20432;-78
2021/11/08 11:09:30;;;;;;;5.55;1.40;;;9.50;99.90;;;;;;5045895;28;20045;-78
2021/11/08 11:12:07;;;;;;;5.85;0.85;;;9.50;99.90;;;;;;5045301;28;20027;-77
2021/11/08 11:14:42;;;;;;;1.88;1.40;;;9.50;99.90;;;;;;5024506;28;20053;-79
2021/11/08 11:17:13;;;;;;;1.80;0.70;;;9.50;99.90;;;;;;5025788;28;20026;-78
2021/11/08 11:19:40;;;;;;;9.10;1.40;;;9.50;99.90;;;;;;5024795;28;20481;-74
2021/11/08 11:22:10;;;;;;;3.65;1.13;;;9.50;99.90;;;;;;5025478;28;20109;-79
2021/11/08 11:24:46;;;;;;;5.18;1.33;;;9.50;99.90;;;;;;5025514;28;20034;-76
2021/11/08 11:27:23;;;;;;;3.58;1.17;;;9.40;99.90;;;;;;5024704;28;20029;-78
2021/11/08 11:29:52;;;;;;;10.45;1.88;;;9.50;99.90;;;;;;5024320;28;20058;-77
2021/11/08 11:32:27;;;;;;;0.80;0.45;;;9.50;99.90;;;;;;5025633;28;20026;-79
2021/11/08 11:34:54;;;;;;;1.52;1.20;;;9.60;99.90;;;;;;5031088;28;20056;-77
2021/11/08 11:37:23;;;;;;;6.50;1.63;;;9.60;99.90;;;;;;5031413;28;20467;-75
2021/11/08 11:40:11;;;;;;;1.60;1.08;;;9.60;99.90;;;;;;5036741;28;20050;-76
2021/11/08 11:42:58;;;;;;;1.70;0.85;;;9.70;99.90;;;;;;5028007;28;20363;-79
2021/11/08 11:45:24;;;;;;;2.83;1.52;;;9.70;99.90;;;;;;5024091;28;20084;-78
2021/11/08 11:48:04;;;;;;;7.30;0.95;;;9.70;99.90;;;;;;5025064;28;20022;-80
2021/11/08 11:50:32;;;;;;;3.85;1.13;;;9.70;99.90;;;;;;5025542;28;20097;-77
2021/11/08 11:52:59;;;;;;;2.95;1.02;;;9.70;99.90;;;;;;5032818;28;20084;-75
2021/11/08 11:55:40;;;;;;;4.53;1.02;;;9.70;99.90;;;;;;5038767;28;20393;-75
2021/11/08 11:58:07;;;;;;;1.70;0.63;;;9.70;99.90;;;;;;5043119;28;20030;-77
2021/11/08 12:00:37;;;;;;;3.83;1.15;;;9.70;99.90;;;;;;5022843;28;20033;-77
2021/11/08 12:03:04;;;;;;;1.75;0.98;;;9.70;99.90;;;;;;5022565;28;20033;-78
2021/11/08 12:05:30;;;;;;;1.38;0.93;;;9.70;99.90;;;;;;5040606;28;20025;-77
2021/11/08 12:08:16;;;;;;;1.88;1.00;;;9.70;99.90;;;;;;5022832;28;20083;-77
2021/11/08 12:10:52;;;;;;;4.45;0.93;;;9.70;99.90;;;;;;5025500;28;20403;-77
2021/11/08 12:13:21;;;;;;;4.35;1.52;;;9.70;99.90;;;;;;5025779;28;20025;-75
2021/11/08 12:15:47;;;;;;;3.58;1.48;;;9.70;99.90;;;;;;5025987;28;20036;-74
2021/11/08 12:18:16;;;;;;;10.20;1.10;;;9.70;99.90;;;;;;5026077;28;20025;-77
2021/11/08 12:20:51;;;;;;;3.38;1.48;;;9.80;99.90;;;;;;5025581;28;20026;-74
2021/11/08 12:23:28;;;;;;;4.57;0.93;;;9.70;99.90;;;;;;5024261;28;20030;-75
2021/11/08 12:25:54;;;;;;;5.03;1.40;;;9.80;99.90;;;;;;5023198;28;20037;-76
2021/11/08 12:28:25;;;;;;;4.47;1.23;;;9.80;99.90;;;;;;5022919;28;20025;-76
2021/11/08 12:31:05;;;;;;;10.30;1.25;;;9.90;99.90;;;;;;5025217;28;20044;-74
2021/11/08 12:33:37;;;;;;;1.83;1.13;;;9.90;99.90;;;;;;5039300;28;20044;-75
2021/11/08 12:36:05;;;;;;;2.85;1.25;;;9.90;99.90;;;;;;5041100;28;20731;-76
2021/11/08 12:38:35;;;;;;;3.33;1.13;;;10.00;99.90;;;;;;5045064;28;20109;-76
2021/11/08 12:41:12;;;;;;;3.45;1.17;;;9.90;99.90;;;;;;5039299;28;20026;-76
2021/11/08 12:43:47;;;;;;;1.80;1.25;;;9.90;99.90;;;;;;5023615;28;20042;-76
2021/11/08 12:46:44;;;;;;;3.65;2.10;;;9.90;99.90;;;;;;5024866;28;20034;-77
2021/11/08 12:49:16;;;;;;;6.88;1.73;;;9.90;99.90;;;;;;5024644;28;20026;-78
2021/11/08 12:52:09;;;;;;;3.78;1.55;;;9.90;99.90;;;;;;5032781;28;20057;-76
2021/11/08 12:54:55;;;;;;;8.27;2.30;;;9.90;99.90;;;;;;5043064;28;20063;-76
2021/11/08 12:57:24;;;;;;;6.65;2.80;;;9.90;99.90;;;;;;5044276;28;20029;-77
2021/11/08 12:59:56;;;;;;;5.18;1.75;;;9.90;99.90;;;;;;5037804;28;20061;-76
2021/11/08 13:02:28;;;;;;;9.00;2.03;;;9.90;99.90;;;;;;5042820;28;20033;-78
2021/11/08 13:04:58;;;;;;;3.50;1.73;;;10.00;99.90;;;;;;5046004;28;20068;-74
2021/11/08 13:07:35;;;;;;;2.33;1.17;;;10.00;99.90;;;;;;5063866;28;20029;-77
2021/11/08 13:10:02;;;;;;;4.43;1.45;;;10.10;99.90;;;;;;5062653;28;20385;-77
2021/11/08 13:12:40;;;;;;;1.45;0.77;;;10.10;99.90;;;;;;5064078;28;20088;-77
2021/11/08 13:15:22;;;;;;;4.50;1.17;;;10.10;99.90;;;;;;5061403;28;20028;-78
2021/11/08 13:18:03;;;;;;;1.42;0.82;;;10.20;99.90;;;;;;5061648;28;20040;-78
2021/11/08 13:20:33;;;;;;;3.25;1.27;;;10.30;99.90;;;;;;5061856;28;20037;-79
2021/11/08 13:23:11;;;;;;;1.38;0.70;;;10.30;99.90;;;;;;5061970;28;20543;-76
2021/11/08 13:25:43;;;;;;;3.00;1.13;;;10.30;99.90;;;;;;5061928;28;20139;-78
2021/11/08 13:28:18;;;;;;;1.98;0.93;;;10.20;99.90;;;;;;5062550;28;20029;-80
2021/11/08 13:30:53;;;;;;;9.63;1.30;;;10.30;99.90;;;;;;5062193;28;20422;-78
2021/11/08 13:33:27;;;;;;;4.28;1.10;;;10.20;99.90;;;;;;5063782;28;20052;-76
2021/11/08 13:35:54;;;;;;;3.40;1.20;;;10.20;99.90;;;;;;5062023;28;20051;-76
2021/11/08 13:38:33;;;;;;;2.67;1.65;;;10.30;99.90;;;;;;5063281;28;20036;-76
2021/11/08 13:41:21;;;;;;;1.20;1.10;;;10.20;99.90;;;;;;5037501;28;20076;-77
2021/11/08 13:43:46;;;;;;;2.47;1.20;;;10.20;99.90;;;;;;5039772;28;20048;-74
2021/11/08 13:46:14;;;;;;;4.18;1.38;;;10.20;99.90;;;;;;5022621;28;20022;-75
2021/11/08 13:48:44;;;;;;;5.95;1.13;;;10.10;99.90;;;;;;5023961;28;20033;-74
2021/11/08 13:51:44;;;;;;;10.70;1.33;;;10.10;99.90;;;;;;5032617;28;20054;-76
2021/11/08 13:54:30;;;;;;;2.40;1.02;;;10.10;99.90;;;;;;5028211;28;20393;-74
2021/11/08 13:57:04;;;;;;;3.28;0.82;;;10.10;99.90;;;;;;5046954;28;20072;-78
2021/11/08 13:59:37;;;;;;;1.40;1.15;;;10.10;99.90;;;;;;5046651;28;20021;-76
2021/11/08 14:02:10;;;;;;;3.40;1.52;;;10.10;99.90;;;;;;5045457;28;20407;-74
2021/11/08 14:04:42;;;;;;;1.75;1.02;;;10.10;99.90;;;;;;5045669;28;20059;-76
2021/11/08 14:07:09;;;;;;;1.13;0.82;;;10.10;99.90;;;;;;5039380;28;20065;-76
2021/11/08 14:09:37;;;;;;;8.88;1.20;;;10.00;99.90;;;;;;5026859;28;20057;-75
2021/11/08 14:12:05;;;;;;;1.92;1.38;;;10.10;99.90;;;;;;5026796;28;20164;-74
2021/11/08 14:14:39;;;;;;;4.13;1.27;;;10.10;99.90;;;;;;5042623;28;20030;-73
2021/11/08 14:17:19;;;;;;;1.23;0.65;;;10.10;99.90;;;;;;5044715;28;20044;-74
2021/11/08 14:19:48;;;;;;;1.23;0.70;;;10.10;99.90;;;;;;5048048;28;20102;-78
2021/11/08 14:22:16;;;;;;;1.17;0.60;;;10.00;99.90;;;;;;5047717;28;20044;-78
2021/11/08 14:24:45;;;;;;;0.80;0.60;;;10.00;99.90;;;;;;5047668;28;20037;-78
2021/11/08 14:27:17;;;;;;;0.85;0.30;;;10.10;99.90;;;;;;5039389;28;20014;-76
2021/11/08 14:29:47;;;;;;;3.22;0.95;;;10.20;99.90;;;;;;5036234;28;20049;-78
2021/11/08 14:32:20;;;;;;;0.98;0.55;;;10.30;99.90;;;;;;5046400;28;20053;-76
2021/11/08 14:34:55;;;;;;;2.55;1.17;;;10.30;99.90;;;;;;5042562;28;20037;-78
2021/11/08 14:37:26;;;;;;;4.32;0.80;;;10.30;99.90;;;;;;5060689;28;20018;-77
2021/11/08 14:39:55;;;;;;;5.78;1.17;;;10.20;99.90;;;;;;5027257;28;20029;-78
2021/11/08 14:42:36;;;;;;;6.00;1.20;;;10.20;99.90;;;;;;5029390;28;20026;-77
2021/11/08 14:45:04;;;;;;;1.55;0.80;;;10.20;99.90;;;;;;5041093;28;20034;-77
2021/11/08 14:47:32;;;;;;;2.63;1.20;;;10.10;99.90;;;;;;5041955;28;20036;-77
2021/11/08 14:50:07;;;;;;;3.03;1.35;;;10.10;99.90;;;;;;5047677;28;20075;-74